Last 24 Hours

Coyote Canyon

10 Minute Data | America/Los_Angeles
as of 5/20/22 8:00 AM PDT
Date & Time Temp (°F) Dew Pt (°F) RH (%) Wind Spd (mph) Wind Dir (°) Wind Gust (mph) Wind Gst Dir (°) Daily Max Temp (°F) Daily Min Temp (°F)
5/20/22 - 0750 45.9 45.9 100 23.8 ENE | 77 31.9 ENE | 77 50.0 45.3
5/20/22 - 0740 45.9 45.9 100 23.6 E | 79 32.2 E | 79 50.0 45.3
5/20/22 - 0730 45.9 45.9 100 23.0 E | 82 30.8 E | 80 50.0 45.3
5/20/22 - 0720 46.0 46.0 100 21.4 E | 86 30.0 E | 83 50.0 45.3
5/20/22 - 0710 45.8 45.8 100 24.0 E | 85 31.9 E | 85 50.0 45.3
5/20/22 - 0700 45.7 45.7 100 21.8 E | 83 28.4 E | 83 50.0 45.3
5/20/22 - 0650 45.5 45.5 100 22.1 E | 82 30.5 E | 82 50.0 45.3
5/20/22 - 0640 45.4 45.4 100 22.3 E | 85 30.3 E | 86 50.0 45.3
5/20/22 - 0630 45.6 45.6 100 19.7 E | 87 29.0 E | 87 50.0 45.3
5/20/22 - 0620 45.5 45.5 100 21.8 E | 83 31.4 E | 82 50.0 45.3
5/20/22 - 0610 45.4 45.4 100 23.1 E | 83 30.5 E | 85 50.0 45.3
5/20/22 - 0600 45.7 45.7 100 19.0 E | 84 28.4 E | 84 50.0 45.5
5/20/22 - 0550 45.6 45.7 100 21.7 E | 83 31.8 E | 82 50.0 45.5
5/20/22 - 0540 45.7 45.7 100 19.3 E | 85 27.2 E | 79 50.0 45.5
5/20/22 - 0530 45.6 45.6 100 22.0 E | 83 28.9 ENE | 72 50.0 45.5
5/20/22 - 0520 45.6 45.6 100 22.6 E | 82 29.4 E | 82 50.0 45.5
5/20/22 - 0510 46.1 46.1 100 19.8 E | 83 27.2 E | 84 50.0 45.8
5/20/22 - 0500 46.2 46.3 100 19.4 E | 81 24.8 E | 82 50.0 46.0
5/20/22 - 0450 46.1 46.1 100 22.3 E | 81 29.7 E | 80 50.0 46.0
5/20/22 - 0440 46.2 46.3 100 21.0 E | 80 29.0 ENE | 78 50.0 46.0
5/20/22 - 0430 46.6 46.6 100 19.7 E | 83 25.9 E | 83 50.0 46.5
5/20/22 - 0420 46.7 46.7 100 19.2 E | 83 27.2 E | 81 50.0 46.6
5/20/22 - 0410 47.0 47.0 100 19.8 E | 82 26.0 E | 82 50.0 46.8
5/20/22 - 0400 47.2 47.2 100 18.2 E | 80 26.6 E | 82 50.0 46.8
5/20/22 - 0350 47.2 47.2 100 19.0 ENE | 77 26.4 ENE | 78 50.0 46.8
5/20/22 - 0340 47.4 47.4 100 20.1 ENE | 76 26.2 ENE | 77 50.0 46.8
5/20/22 - 0330 47.6 47.6 100 19.9 ENE | 75 28.4 ENE | 71 50.0 46.8
5/20/22 - 0320 47.4 47.4 100 19.7 ENE | 72 26.2 ENE | 70 50.0 46.8
5/20/22 - 0310 47.4 47.4 100 20.5 ENE | 71 28.4 ENE | 66 50.0 46.8
5/20/22 - 0300 47.0 47.0 100 19.0 ENE | 69 26.4 ENE | 71 50.0 46.8
5/20/22 - 0250 46.8 46.8 100 20.3 ENE | 63 28.4 ENE | 67 50.0 46.8
5/20/22 - 0240 47.2 47.1 100 18.7 ENE | 59 27.2 NE | 55 50.0 47.1
5/20/22 - 0230 47.3 47.2 100 23.8 NE | 54 30.5 NE | 55 50.0 47.3
5/20/22 - 0220 47.6 47.4 100 21.1 ENE | 60 28.6 ENE | 57 50.0 47.4
5/20/22 - 0210 47.5 47.3 99 23.6 NE | 51 30.3 NE | 44 50.0 47.4
5/20/22 - 0200 47.7 47.5 99 20.6 NE | 47 27.6 NE | 50 50.0 47.4
5/20/22 - 0150 47.7 47.4 99 20.3 NE | 35 26.0 NE | 39 50.0 47.4
5/20/22 - 0140 47.7 47.2 98 21.2 NNE | 31 26.8 NNE | 31 50.0 47.4
5/20/22 - 0130 47.5 46.8 97 19.1 NNE | 27 24.5 NNE | 26 50.0 47.4
5/20/22 - 0120 47.6 46.3 95 19.0 NNE | 25 25.5 NNE | 21 50.0 47.4
5/20/22 - 0110 49.2 46.8 91 19.8 NNE | 25 25.4 NNE | 20 50.0 48.2
5/20/22 - 0100 50.6 47.1 88 20.0 NNE | 23 25.3 NNE | 21 82.8 50.0
5/20/22 - 0050 51.2 46.9 85 19.8 NNE | 27 25.5 NNE | 24 82.8 50.8
5/20/22 - 0040 51.8 46.9 83 18.3 NNE | 29 23.4 NNE | 28 82.8 51.4
5/20/22 - 0030 52.4 46.9 81 17.8 NNE | 29 26.8 NNE | 31 82.8 52.0
5/20/22 - 0020 52.8 46.8 80 18.7 NNE | 27 24.0 NNE | 25 82.8 52.6
5/20/22 - 0010 53.2 47.0 79 19.1 NNE | 23 26.1 NNE | 23 82.8 53.0
5/20/22 - 0000 53.2 47.3 80 21.6 NNE | 20 27.6 NNE | 21 82.8 53.1
5/19/22 - 2350 53.4 47.4 80 22.9 NNE | 26 28.6 N | 8 82.8 53.1
5/19/22 - 2340 53.2 47.4 80 22.9 N | 7 29.3 N | 6 82.8 53.1
5/19/22 - 2330 53.1 47.3 80 22.5 N | 7 28.8 N | 6 82.8 53.1
5/19/22 - 2320 53.5 47.1 79 21.2 N | 6 28.0 N | 5 82.8 53.2
5/19/22 - 2310 53.9 47.0 77 20.1 N | 5 26.7 N | 4 82.8 53.8
5/19/22 - 2300 54.3 46.9 76 18.8 N | 5 23.8 N | 5 82.8 54.0
5/19/22 - 2250 54.6 47.0 76 18.5 N | 2 23.7 N | 4 82.8 54.4
5/19/22 - 2240 55.0 47.0 74 18.7 N | 1 25.1 N | 0 82.8 54.8
5/19/22 - 2230 55.4 46.7 72 18.0 N | 1 23.4 N | 1 82.8 55.2
5/19/22 - 2220 56.0 46.3 70 19.1 N | 0 24.1 N | 1 82.8 55.7
5/19/22 - 2210 56.6 46.1 68 20.1 N | 0 25.9 N | 0 82.8 56.3
5/19/22 - 2200 57.3 45.9 65 20.2 N | 1 27.0 N | 0 82.8 57.0
5/19/22 - 2150 57.5 47.0 68 18.0 N | 0 24.1 N | 1 82.8 57.4
5/19/22 - 2140 58.0 47.9 69 18.8 N | 0 26.4 N | 0 82.8 57.7
5/19/22 - 2130 58.5 48.3 69 19.2 N | 0 24.7 N | 1 82.8 58.3
5/19/22 - 2120 59.1 48.1 67 17.7 N | 2 23.7 N | 1 82.8 58.7
5/19/22 - 2110 59.6 46.9 63 16.4 N | 1 23.3 N | 2 82.8 59.3
5/19/22 - 2100 60.1 45.8 59 18.0 N | 1 24.1 N | 1 82.8 59.8
5/19/22 - 2050 60.7 44.9 56 18.2 N | 1 22.9 N | 1 82.8 60.4
5/19/22 - 2040 61.4 44.1 53 16.9 N | 1 23.0 N | 1 82.8 61.0
5/19/22 - 2030 61.7 43.6 51 17.2 N | 1 23.5 N | 1 82.8 61.3
5/19/22 - 2020 62.5 42.6 48 18.3 N | 0 23.3 N | 0 82.8 61.3
5/19/22 - 2010 63.2 41.6 45 18.5 N | 1 25.1 N | 1 82.8 61.3
5/19/22 - 2000 64.0 41.6 44 19.0 N | 1 24.6 N | 1 82.8 61.3
5/19/22 - 1950 64.9 42.0 43 19.8 N | 1 25.7 N | 1 82.8 61.3
5/19/22 - 1940 65.8 40.8 40 19.2 N | 0 25.9 N | 0 82.8 61.3
5/19/22 - 1930 66.5 40.5 38 16.4 N | 350 24.0 N | 0 82.8 61.3
5/19/22 - 1920 67.4 40.9 38 16.7 W | 274 24.3 W | 274 82.8 61.3
5/19/22 - 1910 68.2 40.9 37 16.7 W | 271 23.2 W | 268 82.8 61.3
5/19/22 - 1900 69.0 42.7 38 17.4 W | 270 24.9 W | 265 82.8 61.3
5/19/22 - 1850 70.2 42.0 36 17.5 NW | 320 25.4 W | 268 82.8 61.3
5/19/22 - 1840 71.2 38.8 31 15.5 N | 0 21.4 N | 0 82.8 61.3
5/19/22 - 1830 72.0 37.5 28 16.4 N | 0 22.6 N | 0 82.8 61.3
5/19/22 - 1820 72.7 38.5 29 14.6 N | 0 22.2 N | 0 82.8 61.3
5/19/22 - 1810 72.9 38.2 28 15.8 N | 0 22.8 N | 0 82.8 61.3
5/19/22 - 1800 73.1 38.0 28 18.6 N | 0 27.0 N | 0 82.8 61.3
5/19/22 - 1750 73.3 39.7 30 18.8 NNW | 343 27.8 N | 0 82.8 61.3
5/19/22 - 1740 73.1 40.0 30 21.2 WNW | 289 26.7 WNW | 289 82.8 61.3
5/19/22 - 1730 73.9 40.8 30 19.4 WNW | 294 25.8 WNW | 293 82.8 61.3
5/19/22 - 1720 74.0 41.6 31 19.3 WNW | 293 26.9 WNW | 295 82.8 61.3
5/19/22 - 1710 74.1 42.3 32 20.8 NNW | 339 25.4 N | 0 82.8 61.3
5/19/22 - 1700 74.7 43.6 33 19.7 N | 0 26.7 N | 1 82.8 61.3
5/19/22 - 1650 75.2 45.3 34 18.8 N | 0 26.8 N | 0 82.8 61.3
5/19/22 - 1640 75.9 47.0 36 19.3 N | 0 26.2 N | 0 82.8 61.3
5/19/22 - 1630 76.1 48.0 37 19.1 N | 0 26.9 N | 0 82.8 61.3
5/19/22 - 1620 76.4 48.3 37 20.1 N | 0 26.4 N | 0 82.8 61.3
5/19/22 - 1610 77.4 48.4 36 18.7 N | 0 27.2 N | 0 82.8 61.3
5/19/22 - 1600 78.1 48.2 35 18.0 N | 0 25.1 N | 0 82.8 61.3
5/19/22 - 1550 79.1 47.6 33 17.5 N | 0 24.1 N | 0 82.8 61.3
5/19/22 - 1540 79.4 46.6 31 17.2 N | 0 23.9 N | 0 82.8 61.3
5/19/22 - 1530 80.2 43.9 28 15.7 N | 0 22.3 N | 0 82.8 61.3
5/19/22 - 1520 80.3 41.4 25 16.1 N | 0 22.1 N | 0 82.8 61.3
5/19/22 - 1510 80.0 43.9 28 16.7 N | 0 23.1 N | 0 82.8 61.3
5/19/22 - 1500 79.7 46.0 30 17.0 N | 0 23.4 N | 0 82.8 61.3
5/19/22 - 1450 80.4 46.1 30 15.0 N | 0 23.2 N | 0 82.8 61.3
5/19/22 - 1440 79.3 45.7 31 16.8 N | 0 24.6 N | 0 82.8 61.3
5/19/22 - 1430 79.3 45.3 30 16.1 N | 0 22.6 N | 0 82.8 61.3
5/19/22 - 1420 79.1 45.2 30 15.6 N | 0 21.7 N | 0 82.8 61.3
5/19/22 - 1410 79.7 45.3 30 15.4 N | 0 21.8 N | 0 82.8 61.3
5/19/22 - 1400 80.7 45.8 29 12.3 N | 0 21.4 N | 0 82.8 61.3
5/19/22 - 1350 81.7 45.4 28 6.5 N | 0 14.6 N | 0 82.8 61.3
5/19/22 - 1340 81.7 41.4 24 8.3 N | 0 28.2 N | 1 82.8 61.3
5/19/22 - 1330 81.3 38.4 22 8.5 N | 0 15.9 N | 0 82.8 61.3
5/19/22 - 1320 81.4 39.0 22 10.0 N | 0 20.2 N | 0 82.8 61.3
5/19/22 - 1310 80.2 38.4 22 9.8 N | 0 16.2 N | 0 81.2 61.3
5/19/22 - 1300 80.3 38.5 22 10.9 N | 0 17.2 N | 0 81.2 61.3
5/19/22 - 1250 80.3 38.5 22 10.9 N | 0 19.2 N | 0 81.2 61.3
5/19/22 - 1240 79.2 38.2 23 11.5 N | 0 19.0 N | 0 81.0 61.3
5/19/22 - 1230 79.3 37.5 22 12.1 N | 0 18.2 N | 0 81.0 61.3
5/19/22 - 1220 80.0 37.2 22 11.4 N | 0 19.5 N | 0 81.0 61.3
5/19/22 - 1210 78.7 35.0 21 12.7 N | 0 21.3 N | 0 80.5 61.3
5/19/22 - 1200 79.4 35.6 21 12.6 N | 0 19.4 N | 0 80.5 61.3
5/19/22 - 1150 78.6 36.5 22 14.2 N | 0 20.1 N | 0 80.0 61.3
5/19/22 - 1140 78.9 37.1 22 14.2 N | 0 21.0 N | 0 80.0 61.3
5/19/22 - 1130 78.4 37.6 23 14.2 N | 0 19.7 N | 0 80.0 61.3
5/19/22 - 1120 77.6 37.0 23 14.9 N | 0 22.4 N | 0 79.7 61.3
5/19/22 - 1110 77.3 37.8 24 14.2 N | 0 20.7 N | 0 79.7 61.3
5/19/22 - 1100 78.1 38.0 24 11.9 N | 0 19.9 N | 0 79.7 61.3
5/19/22 - 1050 77.9 37.3 23 13.2 N | 0 19.1 N | 0 79.7 61.3
5/19/22 - 1040 77.4 37.4 24 11.8 N | 0 17.4 N | 0 78.8 61.3
5/19/22 - 1030 77.5 37.4 24 10.5 N | 0 15.6 N | 0 78.8 61.3
5/19/22 - 1020 77.6 37.5 24 10.3 N | 0 14.8 N | 0 78.4 61.3
5/19/22 - 1010 77.1 37.1 24 9.7 N | 0 15.4 N | 0 77.8 61.3
5/19/22 - 1000 77.2 36.8 23 8.1 N | 0 13.6 N | 0 77.8 61.3
5/19/22 - 0950 76.8 36.8 24 8.2 N | 0 13.4 N | 0 77.2 61.3
5/19/22 - 0940 76.3 36.9 24 7.4 N | 0 12.3 N | 0 77.2 61.3
5/19/22 - 0930 75.7 37.0 25 8.4 N | 0 11.7 N | 0 76.2 61.3
5/19/22 - 0920 75.1 37.1 25 8.7 N | 0 12.0 N | 0 76.2 61.3
5/19/22 - 0910 75.2 37.4 25 7.9 N | 0 11.5 N | 0 76.2 61.3
5/19/22 - 0900 75.4 38.6 26 7.0 N | 0 11.0 N | 0 76.2 61.3
5/19/22 - 0850 75.5 38.1 26 5.7 N | 0 8.9 N | 0 76.1 61.3
5/19/22 - 0840 74.5 36.5 25 5.3 N | 0 8.0 N | 0 75.2 61.3
5/19/22 - 0830 74.6 34.9 23 6.2 N | 0 10.0 N | 0 75.1 61.3
5/19/22 - 0820 73.8 35.7 25 3.8 N | 0 6.4 N | 0 74.4 61.3
5/19/22 - 0810 73.7 36.2 25 3.0 N | 0 5.9 N | 0 74.2 61.3
5/19/22 - 0800 72.9 36.2 26 2.1 N | 0 3.9 N | 0 73.2 61.3
Max 81.7 48.4 100 24.0 - 32.2 - 82.8 61.3
Avg 63.5 43.4 57 16.8 - 23.5 - - -
Min 45.4 34.9 21 2.1 - 3.9 - 50.0 45.3